sensor_id;sensor_type;location;lat;lon;timestamp;pressure;altitude;pressure_sealevel;temperature;humidity
70240;BME280;57629;52.256;10.414;2022-07-22T00:00:53;101090.81;;;23.35;55.93
70240;BME280;57629;52.256;10.414;2022-07-22T00:01:54;101090.03;;;23.34;55.95
70240;BME280;57629;52.256;10.414;2022-07-22T00:02:56;101087.34;;;23.34;55.72
70240;BME280;57629;52.256;10.414;2022-07-22T00:03:57;101083.88;;;23.34;55.86
70240;BME280;57629;52.256;10.414;2022-07-22T00:04:58;101092.72;;;23.34;55.55
70240;BME280;57629;52.256;10.414;2022-07-22T00:05:58;101084.09;;;23.32;55.87
70240;BME280;57629;52.256;10.414;2022-07-22T00:06:59;101090.28;;;23.33;55.85
70240;BME280;57629;52.256;10.414;2022-07-22T00:07:59;101088.41;;;23.33;56.23
70240;BME280;57629;52.256;10.414;2022-07-22T00:09:00;101092.16;;;23.32;56.09
70240;BME280;57629;52.256;10.414;2022-07-22T00:10:01;101093.22;;;23.31;56.38
70240;BME280;57629;52.256;10.414;2022-07-22T00:11:01;101081.69;;;23.31;56.38
70240;BME280;57629;52.256;10.414;2022-07-22T00:12:04;101092.41;;;23.31;56.20
70240;BME280;57629;52.256;10.414;2022-07-22T00:13:05;101088.91;;;23.30;56.42
70240;BME280;57629;52.256;10.414;2022-07-22T00:14:06;101088.91;;;23.30;56.07
70240;BME280;57629;52.256;10.414;2022-07-22T00:15:08;101091.59;;;23.30;56.27
70240;BME280;57629;52.256;10.414;2022-07-22T00:16:09;101088.09;;;23.30;56.28
70240;BME280;57629;52.256;10.414;2022-07-22T00:17:09;101096.16;;;23.30;56.06
70240;BME280;57629;52.256;10.414;2022-07-22T00:18:11;101087.31;;;23.29;56.10
70240;BME280;57629;52.256;10.414;2022-07-22T00:19:12;101090.78;;;23.30;56.53
70240;BME280;57629;52.256;10.414;2022-07-22T00:20:13;101088.09;;;23.30;56.14
70240;BME280;57629;52.256;10.414;2022-07-22T00:21:13;101091.84;;;23.29;56.19
70240;BME280;57629;52.256;10.414;2022-07-22T00:22:14;101084.63;;;23.29;56.37
70240;BME280;57629;52.256;10.414;2022-07-22T00:23:15;101087.31;;;23.29;56.30
70240;BME280;57629;52.256;10.414;2022-07-22T00:24:16;101084.88;;;23.28;56.27
70240;BME280;57629;52.256;10.414;2022-07-22T00:25:17;101089.44;;;23.27;56.14
70240;BME280;57629;52.256;10.414;2022-07-22T00:26:18;101097.22;;;23.29;56.20
70240;BME280;57629;52.256;10.414;2022-07-22T00:27:18;101092.66;;;23.29;56.25
70240;BME280;57629;52.256;10.414;2022-07-22T00:28:19;101085.69;;;23.28;56.26
70240;BME280;57629;52.256;10.414;2022-07-22T00:29:20;101088.38;;;23.28;56.19
70240;BME280;57629;52.256;10.414;2022-07-22T00:30:20;101092.66;;;23.29;56.07
70240;BME280;57629;52.256;10.414;2022-07-22T00:31:21;101083.03;;;23.28;56.26
70240;BME280;57629;52.256;10.414;2022-07-22T00:32:22;101081.94;;;23.29;56.15
70240;BME280;57629;52.256;10.414;2022-07-22T00:33:24;101087.53;;;23.28;56.02
70240;BME280;57629;52.256;10.414;2022-07-22T00:34:25;101084.88;;;23.28;56.19
70240;BME280;57629;52.256;10.414;2022-07-22T00:35:25;101098.03;;;23.29;56.10
70240;BME280;57629;52.256;10.414;2022-07-22T00:36:26;101091.84;;;23.29;55.97
70240;BME280;57629;52.256;10.414;2022-07-22T00:37:27;101095.59;;;23.28;56.19
70240;BME280;57629;52.256;10.414;2022-07-22T00:38:27;101096.41;;;23.28;56.11
70240;BME280;57629;52.256;10.414;2022-07-22T00:39:29;101099.09;;;23.28;56.34
70240;BME280;57629;52.256;10.414;2022-07-22T00:40:29;101090.22;;;23.28;56.00
70240;BME280;57629;52.256;10.414;2022-07-22T00:41:30;101095.59;;;23.28;55.97
70240;BME280;57629;52.256;10.414;2022-07-22T00:42:31;101092.91;;;23.28;56.04
70240;BME280;57629;52.256;10.414;2022-07-22T00:43:53;101092.09;;;23.27;55.87
70240;BME280;57629;52.256;10.414;2022-07-22T00:44:54;101088.63;;;23.27;56.07
70240;BME280;57629;52.256;10.414;2022-07-22T00:45:54;101094.78;;;23.27;56.05
70240;BME280;57629;52.256;10.414;2022-07-22T00:46:55;101094.78;;;23.27;56.25
70240;BME280;57629;52.256;10.414;2022-07-22T00:47:56;101094.78;;;23.27;56.08
70240;BME280;57629;52.256;10.414;2022-07-22T00:48:58;101093.19;;;23.26;56.06
70240;BME280;57629;52.256;10.414;2022-07-22T00:49:59;101088.63;;;23.27;56.04
70240;BME280;57629;52.256;10.414;2022-07-22T00:51:00;101093.97;;;23.27;56.11
70240;BME280;57629;52.256;10.414;2022-07-22T00:52:01;101087.03;;;23.26;55.92
70240;BME280;57629;52.256;10.414;2022-07-22T00:53:03;101091.53;;;23.25;56.14
70240;BME280;57629;52.256;10.414;2022-07-22T00:54:04;101095.06;;;23.26;55.95
70240;BME280;57629;52.256;10.414;2022-07-22T00:55:05;101093.19;;;23.26;56.00
70240;BME280;57629;52.256;10.414;2022-07-22T00:56:06;101088.88;;;23.25;56.06
70240;BME280;57629;52.256;10.414;2022-07-22T00:57:07;101096.91;;;23.25;56.21
70240;BME280;57629;52.256;10.414;2022-07-22T00:58:08;101095.06;;;23.26;56.12
70240;BME280;57629;52.256;10.414;2022-07-22T00:59:10;101090.75;;;23.25;56.13
70240;BME280;57629;52.256;10.414;2022-07-22T01:00:15;101092.63;;;23.24;56.19
70240;BME280;57629;52.256;10.414;2022-07-22T01:01:16;101089.13;;;23.24;56.02
70240;BME280;57629;52.256;10.414;2022-07-22T01:02:17;101088.06;;;23.25;56.15
70240;BME280;57629;52.256;10.414;2022-07-22T01:03:18;101091.00;;;23.23;55.90
70240;BME280;57629;52.256;10.414;2022-07-22T01:04:20;101092.06;;;23.22;55.86
70240;BME280;57629;52.256;10.414;2022-07-22T01:05:21;101085.66;;;23.23;56.19
70240;BME280;57629;52.256;10.414;2022-07-22T01:06:21;101088.34;;;23.23;56.27
70240;BME280;57629;52.256;10.414;2022-07-22T01:07:22;101085.91;;;23.21;56.02
70240;BME280;57629;52.256;10.414;2022-07-22T01:08:23;101087.50;;;23.22;56.05
70240;BME280;57629;52.256;10.414;2022-07-22T01:09:24;101090.19;;;23.22;55.87
70240;BME280;57629;52.256;10.414;2022-07-22T01:10:24;101085.66;;;23.23;55.91
70240;BME280;57629;52.256;10.414;2022-07-22T01:11:26;101088.56;;;23.21;56.37
70240;BME280;57629;52.256;10.414;2022-07-22T01:12:26;101088.34;;;23.23;55.91
70240;BME280;57629;52.256;10.414;2022-07-22T01:13:27;101085.91;;;23.21;55.98
70240;BME280;57629;52.256;10.414;2022-07-22T01:14:28;101085.91;;;23.21;56.08
70240;BME280;57629;52.256;10.414;2022-07-22T01:15:29;101088.56;;;23.21;56.07
70240;BME280;57629;52.256;10.414;2022-07-22T01:16:30;101087.78;;;23.21;56.20
70240;BME280;57629;52.256;10.414;2022-07-22T01:17:30;101081.63;;;23.20;56.22
70240;BME280;57629;52.256;10.414;2022-07-22T01:18:31;101088.81;;;23.20;55.94
70240;BME280;57629;52.256;10.414;2022-07-22T01:19:35;101082.66;;;23.19;56.07
70240;BME280;57629;52.256;10.414;2022-07-22T01:20:37;101085.34;;;23.19;56.18
70240;BME280;57629;52.256;10.414;2022-07-22T01:21:38;101089.66;;;23.20;56.16
70240;BME280;57629;52.256;10.414;2022-07-22T01:22:39;101079.97;;;23.19;56.19
70240;BME280;57629;52.256;10.414;2022-07-22T01:23:40;101086.13;;;23.20;56.02
70240;BME280;57629;52.256;10.414;2022-07-22T01:24:41;101083.47;;;23.20;56.09
70240;BME280;57629;52.256;10.414;2022-07-22T01:25:42;101084.28;;;23.20;55.94
70240;BME280;57629;52.256;10.414;2022-07-22T01:26:42;101082.41;;;23.21;56.04
70240;BME280;57629;52.256;10.414;2022-07-22T01:27:43;101083.22;;;23.21;56.01
70240;BME280;57629;52.256;10.414;2022-07-22T01:28:44;101082.16;;;23.22;56.28
70240;BME280;57629;52.256;10.414;2022-07-22T01:29:44;101082.41;;;23.21;56.09
70240;BME280;57629;52.256;10.414;2022-07-22T01:30:45;101081.63;;;23.20;56.12
70240;BME280;57629;52.256;10.414;2022-07-22T01:31:46;101085.91;;;23.21;55.98
70240;BME280;57629;52.256;10.414;2022-07-22T01:32:46;101086.69;;;23.22;56.04
70240;BME280;57629;52.256;10.414;2022-07-22T01:33:47;101091.81;;;23.24;56.11
70240;BME280;57629;52.256;10.414;2022-07-22T01:34:48;101087.50;;;23.22;56.02
70240;BME280;57629;52.256;10.414;2022-07-22T01:35:51;101088.34;;;23.23;56.17
70240;BME280;57629;52.256;10.414;2022-07-22T01:36:52;101084.03;;;23.22;56.04
70240;BME280;57629;52.256;10.414;2022-07-22T01:37:52;101086.47;;;23.24;55.73
70240;BME280;57629;52.256;10.414;2022-07-22T01:38:53;101092.63;;;23.24;55.74
70240;BME280;57629;52.256;10.414;2022-07-22T01:39:53;101089.94;;;23.24;56.12
70240;BME280;57629;52.256;10.414;2022-07-22T01:40:54;101092.63;;;23.24;55.76
70240;BME280;57629;52.256;10.414;2022-07-22T01:41:55;101093.41;;;23.25;56.00
70240;BME280;57629;52.256;10.414;2022-07-22T01:42:55;101089.94;;;23.24;55.77
70240;BME280;57629;52.256;10.414;2022-07-22T01:43:56;101091.53;;;23.25;55.79
70240;BME280;57629;52.256;10.414;2022-07-22T01:44:57;101088.06;;;23.25;55.75
70240;BME280;57629;52.256;10.414;2022-07-22T01:45:57;101088.06;;;23.25;55.91
70240;BME280;57629;52.256;10.414;2022-07-22T01:46:58;101089.94;;;23.24;55.93
70240;BME280;57629;52.256;10.414;2022-07-22T01:47:59;101090.75;;;23.25;55.67
70240;BME280;57629;52.256;10.414;2022-07-22T01:48:59;101092.63;;;23.24;55.84
70240;BME280;57629;52.256;10.414;2022-07-22T01:50:00;101094.22;;;23.25;55.62
70240;BME280;57629;52.256;10.414;2022-07-22T01:51:03;101095.06;;;23.26;55.86
70240;BME280;57629;52.256;10.414;2022-07-22T01:52:04;101096.09;;;23.25;55.76
70240;BME280;57629;52.256;10.414;2022-07-22T01:53:05;101098.78;;;23.25;55.69
70240;BME280;57629;52.256;10.414;2022-07-22T01:54:06;101094.22;;;23.25;55.71
70240;BME280;57629;52.256;10.414;2022-07-22T01:55:08;101104.94;;;23.25;55.78
70240;BME280;57629;52.256;10.414;2022-07-22T01:56:09;101098.53;;;23.26;55.73
70240;BME280;57629;52.256;10.414;2022-07-22T01:57:09;101096.91;;;23.25;55.81
70240;BME280;57629;52.256;10.414;2022-07-22T01:58:10;101104.13;;;23.25;55.79
70240;BME280;57629;52.256;10.414;2022-07-22T01:59:10;101098.78;;;23.25;55.74
70240;BME280;57629;52.256;10.414;2022-07-22T02:00:12;101097.75;;;23.26;55.61
70240;BME280;57629;52.256;10.414;2022-07-22T02:01:13;101094.22;;;23.25;55.79
70240;BME280;57629;52.256;10.414;2022-07-22T02:02:13;101100.41;;;23.26;55.75
70240;BME280;57629;52.256;10.414;2022-07-22T02:03:14;101100.41;;;23.26;55.92
70240;BME280;57629;52.256;10.414;2022-07-22T02:04:15;101104.94;;;23.25;55.84
70240;BME280;57629;52.256;10.414;2022-07-22T02:05:15;101106.56;;;23.26;55.73
70240;BME280;57629;52.256;10.414;2022-07-22T02:06:17;101105.78;;;23.26;55.70
70240;BME280;57629;52.256;10.414;2022-07-22T02:07:18;101101.22;;;23.26;55.80
70240;BME280;57629;52.256;10.414;2022-07-22T02:08:19;101105.78;;;23.26;55.73
70240;BME280;57629;52.256;10.414;2022-07-22T02:09:19;101104.94;;;23.25;55.63
70240;BME280;57629;52.256;10.414;2022-07-22T02:10:20;101105.78;;;23.26;55.97
70240;BME280;57629;52.256;10.414;2022-07-22T02:11:21;101099.59;;;23.25;55.63
70240;BME280;57629;52.256;10.414;2022-07-22T02:12:21;101098.78;;;23.25;55.75
70240;BME280;57629;52.256;10.414;2022-07-22T02:13:22;101099.59;;;23.25;55.84
70240;BME280;57629;52.256;10.414;2022-07-22T02:14:23;101097.97;;;23.24;55.83
70240;BME280;57629;52.256;10.414;2022-07-22T02:15:24;101097.19;;;23.24;55.90
70240;BME280;57629;52.256;10.414;2022-07-22T02:16:25;101092.06;;;23.22;55.80
70240;BME280;57629;52.256;10.414;2022-07-22T02:17:26;101097.97;;;23.24;55.89
70240;BME280;57629;52.256;10.414;2022-07-22T02:18:26;101095.31;;;23.24;55.91
70240;BME280;57629;52.256;10.414;2022-07-22T02:19:27;101095.53;;;23.22;55.84
70240;BME280;57629;52.256;10.414;2022-07-22T02:20:27;101092.88;;;23.22;55.85
70240;BME280;57629;52.256;10.414;2022-07-22T02:21:29;101088.56;;;23.21;56.15
70240;BME280;57629;52.256;10.414;2022-07-22T02:22:30;101095.53;;;23.22;55.64
70240;BME280;57629;52.256;10.414;2022-07-22T02:23:31;101088.34;;;23.23;55.94
70240;BME280;57629;52.256;10.414;2022-07-22T02:24:32;101088.56;;;23.21;55.98
70240;BME280;57629;52.256;10.414;2022-07-22T02:25:33;101091.50;;;23.20;55.92
70240;BME280;57629;52.256;10.414;2022-07-22T02:26:33;101096.38;;;23.23;55.72
70240;BME280;57629;52.256;10.414;2022-07-22T02:27:34;101091.25;;;23.21;55.71
70240;BME280;57629;52.256;10.414;2022-07-22T02:28:35;101092.88;;;23.22;55.85
70240;BME280;57629;52.256;10.414;2022-07-22T02:29:35;101086.97;;;23.20;55.89
70240;BME280;57629;52.256;10.414;2022-07-22T02:30:36;101092.34;;;23.20;56.02
70240;BME280;57629;52.256;10.414;2022-07-22T02:31:37;101086.13;;;23.20;55.87
70240;BME280;57629;52.256;10.414;2022-07-22T02:32:38;101091.50;;;23.20;55.81
70240;BME280;57629;52.256;10.414;2022-07-22T02:33:38;101088.81;;;23.20;55.94
70240;BME280;57629;52.256;10.414;2022-07-22T02:34:39;101088.03;;;23.19;55.92
70240;BME280;57629;52.256;10.414;2022-07-22T02:35:40;101079.97;;;23.19;55.95
70240;BME280;57629;52.256;10.414;2022-07-22T02:36:42;101091.50;;;23.20;55.79
70240;BME280;57629;52.256;10.414;2022-07-22T02:37:43;101081.84;;;23.19;56.20
70240;BME280;57629;52.256;10.414;2022-07-22T02:38:44;101082.66;;;23.19;56.05
70240;BME280;57629;52.256;10.414;2022-07-22T02:39:44;101079.97;;;23.19;56.07
70240;BME280;57629;52.256;10.414;2022-07-22T02:40:45;101081.63;;;23.20;56.24
70240;BME280;57629;52.256;10.414;2022-07-22T02:41:46;101082.66;;;23.19;55.86
70240;BME280;57629;52.256;10.414;2022-07-22T02:42:46;101075.69;;;23.18;55.82
70240;BME280;57629;52.256;10.414;2022-07-22T02:43:47;101073.81;;;23.19;55.94
70240;BME280;57629;52.256;10.414;2022-07-22T02:44:47;101083.75;;;23.18;55.98
70240;BME280;57629;52.256;10.414;2022-07-22T02:45:48;101082.94;;;23.18;56.17
70240;BME280;57629;52.256;10.414;2022-07-22T02:46:49;101077.31;;;23.19;55.86
70240;BME280;57629;52.256;10.414;2022-07-22T02:47:51;101084.53;;;23.19;55.84
70240;BME280;57629;52.256;10.414;2022-07-22T02:48:52;101086.41;;;23.18;56.13
70240;BME280;57629;52.256;10.414;2022-07-22T02:49:52;101082.94;;;23.18;55.82
70240;BME280;57629;52.256;10.414;2022-07-22T02:50:53;101089.09;;;23.18;55.91
70240;BME280;57629;52.256;10.414;2022-07-22T02:51:55;101087.47;;;23.17;55.99
70240;BME280;57629;52.256;10.414;2022-07-22T02:52:56;101090.97;;;23.18;56.01
70240;BME280;57629;52.256;10.414;2022-07-22T02:53:56;101092.81;;;23.17;56.11
70240;BME280;57629;52.256;10.414;2022-07-22T02:54:58;101092.81;;;23.17;56.02
70240;BME280;57629;52.256;10.414;2022-07-22T02:55:59;101085.63;;;23.18;56.09
70240;BME280;57629;52.256;10.414;2022-07-22T02:56:59;101084.78;;;23.17;56.03
70240;BME280;57629;52.256;10.414;2022-07-22T02:58:04;101094.69;;;23.17;56.00
70240;BME280;57629;52.256;10.414;2022-07-22T02:59:05;101088.28;;;23.18;55.63
70240;BME280;57629;52.256;10.414;2022-07-22T03:00:07;101100.06;;;23.17;56.20
70240;BME280;57629;52.256;10.414;2022-07-22T03:01:07;101100.06;;;23.17;55.96
70240;BME280;57629;52.256;10.414;2022-07-22T03:02:08;101093.88;;;23.16;56.19
70240;BME280;57629;52.256;10.414;2022-07-22T03:03:09;101100.06;;;23.17;55.89
70240;BME280;57629;52.256;10.414;2022-07-22T03:04:10;101100.06;;;23.17;56.16
70240;BME280;57629;52.256;10.414;2022-07-22T03:05:10;101095.78;;;23.16;56.34
70240;BME280;57629;52.256;10.414;2022-07-22T03:06:12;101102.72;;;23.17;56.19
70240;BME280;57629;52.256;10.414;2022-07-22T03:07:14;101101.94;;;23.16;56.33
70240;BME280;57629;52.256;10.414;2022-07-22T03:08:14;101097.63;;;23.15;56.49
70240;BME280;57629;52.256;10.414;2022-07-22T03:09:15;101102.16;;;23.15;56.34
70240;BME280;57629;52.256;10.414;2022-07-22T03:10:16;101098.44;;;23.16;56.27
70240;BME280;57629;52.256;10.414;2022-07-22T03:11:16;101102.16;;;23.15;56.19
70240;BME280;57629;52.256;10.414;2022-07-22T03:12:17;101098.69;;;23.14;56.02
70240;BME280;57629;52.256;10.414;2022-07-22T03:13:17;101100.56;;;23.14;56.24
70240;BME280;57629;52.256;10.414;2022-07-22T03:14:18;101103.25;;;23.14;56.28
70240;BME280;57629;52.256;10.414;2022-07-22T03:15:19;101100.56;;;23.14;56.42
70240;BME280;57629;52.256;10.414;2022-07-22T03:16:20;101103.25;;;23.14;56.45
70240;BME280;57629;52.256;10.414;2022-07-22T03:17:20;101097.88;;;23.14;56.45
70240;BME280;57629;52.256;10.414;2022-07-22T03:18:21;101103.25;;;23.14;56.43
70240;BME280;57629;52.256;10.414;2022-07-22T03:19:22;101104.28;;;23.13;56.68
70240;BME280;57629;52.256;10.414;2022-07-22T03:20:22;101098.94;;;23.13;56.57
70240;BME280;57629;52.256;10.414;2022-07-22T03:21:23;101101.59;;;23.13;56.53
70240;BME280;57629;52.256;10.414;2022-07-22T03:22:25;101106.97;;;23.13;56.42
70240;BME280;57629;52.256;10.414;2022-07-22T03:23:26;101101.59;;;23.13;56.49
70240;BME280;57629;52.256;10.414;2022-07-22T03:24:26;101106.97;;;23.13;56.86
70240;BME280;57629;52.256;10.414;2022-07-22T03:25:27;101108.59;;;23.14;56.75
70240;BME280;57629;52.256;10.414;2022-07-22T03:26:28;101107.81;;;23.13;56.86
70240;BME280;57629;52.256;10.414;2022-07-22T03:27:29;101104.28;;;23.13;56.60
70240;BME280;57629;52.256;10.414;2022-07-22T03:28:29;101105.38;;;23.12;56.58
70240;BME280;57629;52.256;10.414;2022-07-22T03:29:30;101106.16;;;23.12;56.81
70240;BME280;57629;52.256;10.414;2022-07-22T03:30:31;101111.53;;;23.12;56.73
70240;BME280;57629;52.256;10.414;2022-07-22T03:31:31;101109.66;;;23.13;56.75
70240;BME280;57629;52.256;10.414;2022-07-22T03:32:32;101107.25;;;23.11;56.77
70240;BME280;57629;52.256;10.414;2022-07-22T03:33:33;101106.16;;;23.12;56.30
70240;BME280;57629;52.256;10.414;2022-07-22T03:34:33;101108.03;;;23.12;56.64
70240;BME280;57629;52.256;10.414;2022-07-22T03:35:34;101105.38;;;23.12;56.76
70240;BME280;57629;52.256;10.414;2022-07-22T03:36:35;101109.91;;;23.11;56.74
70240;BME280;57629;52.256;10.414;2022-07-22T03:37:37;101113.63;;;23.10;56.68
70240;BME280;57629;52.256;10.414;2022-07-22T03:38:37;101110.72;;;23.12;56.73
70240;BME280;57629;52.256;10.414;2022-07-22T03:39:38;101102.94;;;23.10;56.82
70240;BME280;57629;52.256;10.414;2022-07-22T03:40:39;101108.28;;;23.10;56.85
70240;BME280;57629;52.256;10.414;2022-07-22T03:41:39;101110.97;;;23.10;56.98
70240;BME280;57629;52.256;10.414;2022-07-22T03:42:40;101111.78;;;23.11;56.67
70240;BME280;57629;52.256;10.414;2022-07-22T03:43:40;101111.78;;;23.11;57.09
70240;BME280;57629;52.256;10.414;2022-07-22T03:44:41;101113.63;;;23.10;56.87
70240;BME280;57629;52.256;10.414;2022-07-22T03:45:43;101106.44;;;23.11;56.90
70240;BME280;57629;52.256;10.414;2022-07-22T03:46:44;101107.47;;;23.10;57.00
70240;BME280;57629;52.256;10.414;2022-07-22T03:47:44;101110.16;;;23.10;57.14
70240;BME280;57629;52.256;10.414;2022-07-22T03:48:45;101112.59;;;23.11;57.02
70240;BME280;57629;52.256;10.414;2022-07-22T03:49:46;101113.63;;;23.10;57.04
70240;BME280;57629;52.256;10.414;2022-07-22T03:50:46;101115.28;;;23.11;57.32
70240;BME280;57629;52.256;10.414;2022-07-22T03:51:47;101121.44;;;23.12;57.43
70240;BME280;57629;52.256;10.414;2022-07-22T03:52:49;101121.44;;;23.12;57.12
70240;BME280;57629;52.256;10.414;2022-07-22T03:53:49;101116.06;;;23.12;57.10
70240;BME280;57629;52.256;10.414;2022-07-22T03:54:50;101114.19;;;23.12;57.03
70240;BME280;57629;52.256;10.414;2022-07-22T03:55:54;101123.03;;;23.13;56.90
70240;BME280;57629;52.256;10.414;2022-07-22T03:56:54;101114.19;;;23.12;56.83
70240;BME280;57629;52.256;10.414;2022-07-22T03:57:55;101122.25;;;23.12;56.74
70240;BME280;57629;52.256;10.414;2022-07-22T03:58:55;101124.91;;;23.12;57.05
70240;BME280;57629;52.256;10.414;2022-07-22T03:59:56;101129.47;;;23.12;56.80
70240;BME280;57629;52.256;10.414;2022-07-22T04:00:57;101129.47;;;23.12;56.98
70240;BME280;57629;52.256;10.414;2022-07-22T04:01:57;101134.03;;;23.11;56.90
70240;BME280;57629;52.256;10.414;2022-07-22T04:02:58;101128.41;;;23.13;56.95
70240;BME280;57629;52.256;10.414;2022-07-22T04:03:58;101123.31;;;23.11;57.02
70240;BME280;57629;52.256;10.414;2022-07-22T04:04:59;101123.31;;;23.11;57.00
70240;BME280;57629;52.256;10.414;2022-07-22T04:06:00;101129.47;;;23.12;57.03
70240;BME280;57629;52.256;10.414;2022-07-22T04:07:00;101132.41;;;23.10;57.02
70240;BME280;57629;52.256;10.414;2022-07-22T04:08:03;101128.66;;;23.11;56.98
70240;BME280;57629;52.256;10.414;2022-07-22T04:09:03;101127.59;;;23.12;56.88
70240;BME280;57629;52.256;10.414;2022-07-22T04:10:05;101132.16;;;23.12;57.03
70240;BME280;57629;52.256;10.414;2022-07-22T04:11:05;101126.78;;;23.12;57.13
70240;BME280;57629;52.256;10.414;2022-07-22T04:12:07;101129.47;;;23.12;57.04
70240;BME280;57629;52.256;10.414;2022-07-22T04:13:07;101137.50;;;23.12;57.12
70240;BME280;57629;52.256;10.414;2022-07-22T04:14:08;101133.22;;;23.11;57.06
70240;BME280;57629;52.256;10.414;2022-07-22T04:15:09;101138.59;;;23.11;57.04
70240;BME280;57629;52.256;10.414;2022-07-22T04:16:10;101142.06;;;23.11;57.04
70240;BME280;57629;52.256;10.414;2022-07-22T04:17:11;101142.88;;;23.12;56.97
70240;BME280;57629;52.256;10.414;2022-07-22T04:18:11;101143.94;;;23.11;57.14
70240;BME280;57629;52.256;10.414;2022-07-22T04:19:12;101140.44;;;23.10;57.10
70240;BME280;57629;52.256;10.414;2022-07-22T04:20:13;101150.09;;;23.11;57.10
70240;BME280;57629;52.256;10.414;2022-07-22T04:21:14;101143.94;;;23.11;57.19
70240;BME280;57629;52.256;10.414;2022-07-22T04:22:14;101142.06;;;23.11;57.18
70240;BME280;57629;52.256;10.414;2022-07-22T04:23:16;101143.09;;;23.10;57.12
70240;BME280;57629;52.256;10.414;2022-07-22T04:24:17;101149.31;;;23.11;57.03
70240;BME280;57629;52.256;10.414;2022-07-22T04:25:17;101147.41;;;23.11;57.27
70240;BME280;57629;52.256;10.414;2022-07-22T04:26:18;101145.78;;;23.10;57.02
70240;BME280;57629;52.256;10.414;2022-07-22T04:27:19;101146.63;;;23.11;56.90
70240;BME280;57629;52.256;10.414;2022-07-22T04:28:19;101153.59;;;23.12;57.03
70240;BME280;57629;52.256;10.414;2022-07-22T04:29:20;101143.66;;;23.12;57.20
70240;BME280;57629;52.256;10.414;2022-07-22T04:30:21;101146.63;;;23.11;57.05
70240;BME280;57629;52.256;10.414;2022-07-22T04:31:21;101150.09;;;23.11;56.97
70240;BME280;57629;52.256;10.414;2022-07-22T04:32:22;101152.78;;;23.11;57.09
70240;BME280;57629;52.256;10.414;2022-07-22T04:33:22;101152.78;;;23.11;56.89
70240;BME280;57629;52.256;10.414;2022-07-22T04:34:23;101153.59;;;23.12;56.67
70240;BME280;57629;52.256;10.414;2022-07-22T04:35:24;101149.31;;;23.11;56.74
70240;BME280;57629;52.256;10.414;2022-07-22T04:36:25;101154.66;;;23.11;56.76
70240;BME280;57629;52.256;10.414;2022-07-22T04:37:25;101156.50;;;23.10;56.91
70240;BME280;57629;52.256;10.414;2022-07-22T04:38:27;101155.69;;;23.10;56.76
70240;BME280;57629;52.256;10.414;2022-07-22T04:39:28;101163.72;;;23.10;56.75
70240;BME280;57629;52.256;10.414;2022-07-22T04:40:29;101156.78;;;23.09;56.61
70240;BME280;57629;52.256;10.414;2022-07-22T04:41:29;101154.09;;;23.09;56.71
70240;BME280;57629;52.256;10.414;2022-07-22T04:42:30;101158.66;;;23.08;56.79
70240;BME280;57629;52.256;10.414;2022-07-22T04:43:30;101158.66;;;23.08;56.67
70240;BME280;57629;52.256;10.414;2022-07-22T04:44:31;101164.00;;;23.08;56.74
70240;BME280;57629;52.256;10.414;2022-07-22T04:45:32;101163.16;;;23.08;56.63
70240;BME280;57629;52.256;10.414;2022-07-22T04:46:33;101162.13;;;23.09;56.61
70240;BME280;57629;52.256;10.414;2022-07-22T04:47:33;101160.25;;;23.09;56.60
70240;BME280;57629;52.256;10.414;2022-07-22T04:48:34;101159.44;;;23.09;56.85
70240;BME280;57629;52.256;10.414;2022-07-22T04:49:35;101165.84;;;23.08;56.48
70240;BME280;57629;52.256;10.414;2022-07-22T04:50:36;101165.84;;;23.08;56.44
70240;BME280;57629;52.256;10.414;2022-07-22T04:51:37;101164.00;;;23.08;56.48
70240;BME280;57629;52.256;10.414;2022-07-22T04:52:37;101160.50;;;23.08;56.72
70240;BME280;57629;52.256;10.414;2022-07-22T04:53:39;101164.25;;;23.07;56.71
70240;BME280;57629;52.256;10.414;2022-07-22T04:54:40;101169.59;;;23.07;56.66
70240;BME280;57629;52.256;10.414;2022-07-22T04:55:42;101163.16;;;23.08;56.49
70240;BME280;57629;52.256;10.414;2022-07-22T04:56:42;101161.56;;;23.07;56.44
70240;BME280;57629;52.256;10.414;2022-07-22T04:57:43;101172.28;;;23.07;56.35
70240;BME280;57629;52.256;10.414;2022-07-22T04:58:44;101164.25;;;23.07;56.49
70240;BME280;57629;52.256;10.414;2022-07-22T04:59:44;101166.91;;;23.07;56.39
70240;BME280;57629;52.256;10.414;2022-07-22T05:00:45;101170.69;;;23.06;56.52
70240;BME280;57629;52.256;10.414;2022-07-22T05:01:46;101165.31;;;23.06;56.44
70240;BME280;57629;52.256;10.414;2022-07-22T05:02:46;101166.13;;;23.06;56.52
70240;BME280;57629;52.256;10.414;2022-07-22T05:03:47;101176.03;;;23.06;56.77
70240;BME280;57629;52.256;10.414;2022-07-22T05:04:48;101166.38;;;23.05;56.65
70240;BME280;57629;52.256;10.414;2022-07-22T05:05:48;101170.69;;;23.06;56.44
70240;BME280;57629;52.256;10.414;2022-07-22T05:06:50;101177.34;;;23.03;56.60
70240;BME280;57629;52.256;10.414;2022-07-22T05:07:51;101168.25;;;23.04;56.42
70240;BME280;57629;52.256;10.414;2022-07-22T05:08:53;101171.72;;;23.05;56.70
70240;BME280;57629;52.256;10.414;2022-07-22T05:09:54;101177.34;;;23.03;56.47
70240;BME280;57629;52.256;10.414;2022-07-22T05:10:54;101175.47;;;23.04;56.53
70240;BME280;57629;52.256;10.414;2022-07-22T05:11:55;101178.16;;;23.04;56.42
70240;BME280;57629;52.256;10.414;2022-07-22T05:12:56;101169.31;;;23.03;56.50
70240;BME280;57629;52.256;10.414;2022-07-22T05:13:56;101179.19;;;23.03;56.62
70240;BME280;57629;52.256;10.414;2022-07-22T05:14:57;101177.34;;;23.03;56.69